sensor_id;sensor_type;location;lat;lon;timestamp;P1;durP1;ratioP1;P2;durP2;ratioP2
29416;SDS011;28421;51.030;4.006;2022-10-31T05:02:44;1.83;;;0.85;;
29416;SDS011;28421;51.030;4.006;2022-10-31T05:05:18;2.43;;;1.03;;
29416;SDS011;28421;51.030;4.006;2022-10-31T05:07:46;0.95;;;0.95;;
29416;SDS011;28421;51.030;4.006;2022-10-31T05:10:14;0.70;;;0.70;;
29416;SDS011;28421;51.030;4.006;2022-10-31T05:12:45;2.08;;;1.05;;
29416;SDS011;28421;51.030;4.006;2022-10-31T05:15:53;0.60;;;0.60;;
29416;SDS011;28421;51.030;4.006;2022-10-31T05:18:37;1.73;;;1.10;;
29416;SDS011;28421;51.030;4.006;2022-10-31T05:21:21;0.68;;;0.68;;
29416;SDS011;28421;51.030;4.006;2022-10-31T05:23:50;0.77;;;0.57;;
29416;SDS011;28421;51.030;4.006;2022-10-31T05:26:19;1.00;;;0.75;;
29416;SDS011;28421;51.030;4.006;2022-10-31T05:28:46;1.33;;;1.08;;
29416;SDS011;28421;51.030;4.006;2022-10-31T05:31:11;0.90;;;0.70;;
29416;SDS011;28421;51.030;4.006;2022-10-31T05:33:37;0.80;;;0.80;;
29416;SDS011;28421;51.030;4.006;2022-10-31T05:36:21;0.73;;;0.73;;
29416;SDS011;28421;51.030;4.006;2022-10-31T05:38:56;0.85;;;0.68;;
29416;SDS011;28421;51.030;4.006;2022-10-31T05:41:24;0.60;;;0.60;;
29416;SDS011;28421;51.030;4.006;2022-10-31T05:43:54;0.75;;;0.73;;
29416;SDS011;28421;51.030;4.006;2022-10-31T05:46:25;0.65;;;0.65;;
29416;SDS011;28421;51.030;4.006;2022-10-31T05:49:10;0.83;;;0.57;;
29416;SDS011;28421;51.030;4.006;2022-10-31T05:52:10;1.42;;;0.63;;
29416;SDS011;28421;51.030;4.006;2022-10-31T05:54:44;0.60;;;0.60;;
29416;SDS011;28421;51.030;4.006;2022-10-31T05:57:09;2.03;;;1.10;;
29416;SDS011;28421;51.030;4.006;2022-10-31T05:59:36;0.70;;;0.68;;
29416;SDS011;28421;51.030;4.006;2022-10-31T06:02:01;1.20;;;1.10;;
29416;SDS011;28421;51.030;4.006;2022-10-31T06:04:53;1.20;;;0.85;;
29416;SDS011;28421;51.030;4.006;2022-10-31T06:07:19;1.13;;;0.88;;
29416;SDS011;28421;51.030;4.006;2022-10-31T06:09:45;1.25;;;0.77;;
29416;SDS011;28421;51.030;4.006;2022-10-31T06:12:10;0.75;;;0.50;;
29416;SDS011;28421;51.030;4.006;2022-10-31T06:14:56;0.90;;;0.73;;
29416;SDS011;28421;51.030;4.006;2022-10-31T06:17:22;1.05;;;0.80;;
29416;SDS011;28421;51.030;4.006;2022-10-31T06:19:48;0.80;;;0.80;;
29416;SDS011;28421;51.030;4.006;2022-10-31T06:22:19;0.80;;;0.80;;
29416;SDS011;28421;51.030;4.006;2022-10-31T06:24:44;1.52;;;0.80;;
29416;SDS011;28421;51.030;4.006;2022-10-31T06:27:21;1.35;;;0.70;;
29416;SDS011;28421;51.030;4.006;2022-10-31T06:29:47;0.98;;;0.82;;
29416;SDS011;28421;51.030;4.006;2022-10-31T06:32:22;0.95;;;0.95;;
29416;SDS011;28421;51.030;4.006;2022-10-31T06:34:49;1.10;;;0.80;;
29416;SDS011;28421;51.030;4.006;2022-10-31T06:37:15;1.02;;;0.90;;
29416;SDS011;28421;51.030;4.006;2022-10-31T06:39:44;0.77;;;0.77;;
29416;SDS011;28421;51.030;4.006;2022-10-31T06:42:11;0.77;;;0.77;;
29416;SDS011;28421;51.030;4.006;2022-10-31T06:44:37;1.20;;;0.80;;
29416;SDS011;28421;51.030;4.006;2022-10-31T06:47:21;0.73;;;0.73;;
29416;SDS011;28421;51.030;4.006;2022-10-31T06:49:58;0.80;;;0.70;;
29416;SDS011;28421;51.030;4.006;2022-10-31T06:52:24;0.70;;;0.70;;
29416;SDS011;28421;51.030;4.006;2022-10-31T06:54:51;0.88;;;0.88;;
29416;SDS011;28421;51.030;4.006;2022-10-31T06:57:17;1.85;;;1.40;;
29416;SDS011;28421;51.030;4.006;2022-10-31T06:59:43;0.90;;;0.80;;
29416;SDS011;28421;51.030;4.006;2022-10-31T07:02:18;0.65;;;0.65;;
29416;SDS011;28421;51.030;4.006;2022-10-31T07:04:43;1.10;;;0.95;;
29416;SDS011;28421;51.030;4.006;2022-10-31T07:07:12;1.15;;;0.82;;
29416;SDS011;28421;51.030;4.006;2022-10-31T07:09:38;1.20;;;1.10;;
29416;SDS011;28421;51.030;4.006;2022-10-31T07:12:05;1.48;;;1.00;;
29416;SDS011;28421;51.030;4.006;2022-10-31T07:14:34;2.13;;;1.02;;
29416;SDS011;28421;51.030;4.006;2022-10-31T07:17:01;1.45;;;0.90;;
29416;SDS011;28421;51.030;4.006;2022-10-31T07:19:33;0.77;;;0.75;;
29416;SDS011;28421;51.030;4.006;2022-10-31T07:21:58;0.80;;;0.80;;
29416;SDS011;28421;51.030;4.006;2022-10-31T07:24:27;2.42;;;0.88;;
29416;SDS011;28421;51.030;4.006;2022-10-31T07:27:18;1.40;;;0.93;;
29416;SDS011;28421;51.030;4.006;2022-10-31T07:29:46;1.75;;;1.10;;
29416;SDS011;28421;51.030;4.006;2022-10-31T07:32:14;7.47;;;0.70;;
29416;SDS011;28421;51.030;4.006;2022-10-31T07:34:45;1.10;;;1.00;;
29416;SDS011;28421;51.030;4.006;2022-10-31T07:39:46;1.52;;;1.20;;
29416;SDS011;28421;51.030;4.006;2022-10-31T07:42:12;0.98;;;0.73;;
29416;SDS011;28421;51.030;4.006;2022-10-31T07:44:42;2.05;;;0.70;;
29416;SDS011;28421;51.030;4.006;2022-10-31T07:47:13;1.00;;;0.90;;
29416;SDS011;28421;51.030;4.006;2022-10-31T07:49:57;1.70;;;1.05;;
29416;SDS011;28421;51.030;4.006;2022-10-31T07:52:41;0.73;;;0.73;;
29416;SDS011;28421;51.030;4.006;2022-10-31T07:55:27;0.80;;;0.80;;
29416;SDS011;28421;51.030;4.006;2022-10-31T07:57:57;1.40;;;0.93;;
29416;SDS011;28421;51.030;4.006;2022-10-31T08:00:24;1.00;;;0.88;;
29416;SDS011;28421;51.030;4.006;2022-10-31T08:02:56;5.10;;;1.05;;
29416;SDS011;28421;51.030;4.006;2022-10-31T08:05:58;5.65;;;1.20;;
29416;SDS011;28421;51.030;4.006;2022-10-31T08:08:46;3.28;;;1.95;;
29416;SDS011;28421;51.030;4.006;2022-10-31T08:11:12;1.55;;;1.00;;
29416;SDS011;28421;51.030;4.006;2022-10-31T08:13:38;3.00;;;1.25;;
29416;SDS011;28421;51.030;4.006;2022-10-31T08:16:04;1.55;;;0.90;;
29416;SDS011;28421;51.030;4.006;2022-10-31T08:18:35;1.30;;;1.05;;
29416;SDS011;28421;51.030;4.006;2022-10-31T08:21:03;1.08;;;0.90;;
29416;SDS011;28421;51.030;4.006;2022-10-31T08:23:29;0.80;;;0.80;;
29416;SDS011;28421;51.030;4.006;2022-10-31T08:25:54;3.13;;;1.60;;
29416;SDS011;28421;51.030;4.006;2022-10-31T08:28:22;2.10;;;0.95;;
29416;SDS011;28421;51.030;4.006;2022-10-31T08:30:49;1.55;;;1.15;;
29416;SDS011;28421;51.030;4.006;2022-10-31T08:33:33;0.82;;;0.82;;
29416;SDS011;28421;51.030;4.006;2022-10-31T08:36:17;2.65;;;1.00;;
29416;SDS011;28421;51.030;4.006;2022-10-31T08:38:58;1.05;;;0.85;;
29416;SDS011;28421;51.030;4.006;2022-10-31T08:41:26;1.13;;;1.02;;
29416;SDS011;28421;51.030;4.006;2022-10-31T08:43:52;1.13;;;0.90;;
29416;SDS011;28421;51.030;4.006;2022-10-31T08:46:17;1.10;;;1.05;;
29416;SDS011;28421;51.030;4.006;2022-10-31T08:48:43;3.20;;;1.00;;
29416;SDS011;28421;51.030;4.006;2022-10-31T08:51:09;1.45;;;1.35;;
29416;SDS011;28421;51.030;4.006;2022-10-31T08:53:36;2.20;;;1.23;;
29416;SDS011;28421;51.030;4.006;2022-10-31T08:56:20;3.10;;;1.20;;
29416;SDS011;28421;51.030;4.006;2022-10-31T08:58:47;1.73;;;1.42;;
29416;SDS011;28421;51.030;4.006;2022-10-31T09:01:13;3.33;;;1.45;;
29416;SDS011;28421;51.030;4.006;2022-10-31T09:03:41;4.10;;;1.05;;
29416;SDS011;28421;51.030;4.006;2022-10-31T09:06:09;2.63;;;1.35;;
29416;SDS011;28421;51.030;4.006;2022-10-31T09:08:36;3.78;;;1.50;;
29416;SDS011;28421;51.030;4.006;2022-10-31T09:11:02;4.63;;;1.40;;
29416;SDS011;28421;51.030;4.006;2022-10-31T09:13:47;1.35;;;1.10;;
29416;SDS011;28421;51.030;4.006;2022-10-31T09:16:31;2.25;;;1.30;;
29416;SDS011;28421;51.030;4.006;2022-10-31T09:18:57;1.73;;;1.17;;
29416;SDS011;28421;51.030;4.006;2022-10-31T09:21:23;1.83;;;1.17;;
29416;SDS011;28421;51.030;4.006;2022-10-31T09:23:49;3.47;;;1.17;;
29416;SDS011;28421;51.030;4.006;2022-10-31T09:26:14;2.13;;;1.05;;
29416;SDS011;28421;51.030;4.006;2022-10-31T09:28:55;2.67;;;1.65;;
29416;SDS011;28421;51.030;4.006;2022-10-31T09:31:23;2.38;;;0.77;;
29416;SDS011;28421;51.030;4.006;2022-10-31T09:34:02;1.67;;;1.33;;
29416;SDS011;28421;51.030;4.006;2022-10-31T09:36:39;1.48;;;1.38;;
29416;SDS011;28421;51.030;4.006;2022-10-31T09:39:13;4.25;;;1.45;;
29416;SDS011;28421;51.030;4.006;2022-10-31T09:47:45;1.43;;;0.97;;
29416;SDS011;28421;51.030;4.006;2022-10-31T09:51:07;4.50;;;1.17;;
29416;SDS011;28421;51.030;4.006;2022-10-31T09:54:09;1.08;;;0.90;;
29416;SDS011;28421;51.030;4.006;2022-10-31T09:56:39;4.05;;;1.58;;
29416;SDS011;28421;51.030;4.006;2022-10-31T09:59:05;2.08;;;1.55;;
29416;SDS011;28421;51.030;4.006;2022-10-31T10:02:05;2.50;;;1.48;;
29416;SDS011;28421;51.030;4.006;2022-10-31T10:04:43;2.72;;;1.42;;
29416;SDS011;28421;51.030;4.006;2022-10-31T10:19:34;3.20;;;1.85;;
29416;SDS011;28421;51.030;4.006;2022-10-31T10:25:01;2.55;;;2.05;;
29416;SDS011;28421;51.030;4.006;2022-10-31T10:30:22;8.57;;;2.33;;
29416;SDS011;28421;51.030;4.006;2022-10-31T10:32:59;2.40;;;2.05;;
29416;SDS011;28421;51.030;4.006;2022-10-31T10:38:02;2.65;;;2.22;;
29416;SDS011;28421;51.030;4.006;2022-10-31T10:40:29;2.58;;;1.75;;
29416;SDS011;28421;51.030;4.006;2022-10-31T10:45:57;4.85;;;2.33;;
29416;SDS011;28421;51.030;4.006;2022-10-31T10:51:46;4.47;;;2.20;;
29416;SDS011;28421;51.030;4.006;2022-10-31T10:57:38;3.88;;;2.08;;
29416;SDS011;28421;51.030;4.006;2022-10-31T11:00:22;5.35;;;2.17;;
29416;SDS011;28421;51.030;4.006;2022-10-31T11:02:50;3.78;;;2.35;;
29416;SDS011;28421;51.030;4.006;2022-10-31T11:08:33;7.47;;;2.25;;
29416;SDS011;28421;51.030;4.006;2022-10-31T11:11:06;4.18;;;2.25;;
29416;SDS011;28421;51.030;4.006;2022-10-31T11:13:36;2.92;;;1.80;;
29416;SDS011;28421;51.030;4.006;2022-10-31T11:16:06;3.63;;;1.67;;
29416;SDS011;28421;51.030;4.006;2022-10-31T11:18:36;4.10;;;1.80;;
29416;SDS011;28421;51.030;4.006;2022-10-31T11:21:04;4.53;;;2.47;;
29416;SDS011;28421;51.030;4.006;2022-10-31T11:23:31;5.53;;;2.33;;
29416;SDS011;28421;51.030;4.006;2022-10-31T11:26:02;3.75;;;1.92;;
29416;SDS011;28421;51.030;4.006;2022-10-31T11:28:30;5.35;;;1.98;;
29416;SDS011;28421;51.030;4.006;2022-10-31T11:30:59;4.82;;;2.25;;
29416;SDS011;28421;51.030;4.006;2022-10-31T11:33:58;5.53;;;2.20;;
29416;SDS011;28421;51.030;4.006;2022-10-31T11:36:27;4.88;;;1.88;;
29416;SDS011;28421;51.030;4.006;2022-10-31T11:38:57;2.53;;;2.10;;
29416;SDS011;28421;51.030;4.006;2022-10-31T11:41:32;5.05;;;2.42;;
29416;SDS011;28421;51.030;4.006;2022-10-31T11:44:04;5.55;;;2.38;;
29416;SDS011;28421;51.030;4.006;2022-10-31T11:46:38;3.65;;;2.05;;
29416;SDS011;28421;51.030;4.006;2022-10-31T11:49:11;6.18;;;2.20;;
29416;SDS011;28421;51.030;4.006;2022-10-31T11:51:46;5.70;;;2.08;;
29416;SDS011;28421;51.030;4.006;2022-10-31T11:54:18;5.85;;;1.75;;
29416;SDS011;28421;51.030;4.006;2022-10-31T11:56:56;2.78;;;1.90;;
29416;SDS011;28421;51.030;4.006;2022-10-31T12:01:56;4.20;;;2.33;;
29416;SDS011;28421;51.030;4.006;2022-10-31T12:04:31;6.95;;;1.83;;
29416;SDS011;28421;51.030;4.006;2022-10-31T12:07:07;4.35;;;2.25;;
29416;SDS011;28421;51.030;4.006;2022-10-31T12:09:33;4.45;;;2.55;;
29416;SDS011;28421;51.030;4.006;2022-10-31T12:17:42;5.47;;;2.05;;
29416;SDS011;28421;51.030;4.006;2022-10-31T12:20:26;2.17;;;1.63;;
29416;SDS011;28421;51.030;4.006;2022-10-31T12:31:13;4.88;;;2.00;;
29416;SDS011;28421;51.030;4.006;2022-10-31T12:39:35;5.15;;;1.77;;
29416;SDS011;28421;51.030;4.006;2022-10-31T12:44:55;1.80;;;1.33;;
29416;SDS011;28421;51.030;4.006;2022-10-31T12:59:02;3.45;;;1.80;;
29416;SDS011;28421;51.030;4.006;2022-10-31T13:02:02;4.18;;;2.00;;
29416;SDS011;28421;51.030;4.006;2022-10-31T13:07:30;3.85;;;2.10;;
29416;SDS011;28421;51.030;4.006;2022-10-31T13:10:16;3.30;;;1.83;;
29416;SDS011;28421;51.030;4.006;2022-10-31T13:12:53;1.95;;;1.73;;
29416;SDS011;28421;51.030;4.006;2022-10-31T13:15:24;3.13;;;1.85;;
29416;SDS011;28421;51.030;4.006;2022-10-31T13:17:56;6.22;;;1.73;;
29416;SDS011;28421;51.030;4.006;2022-10-31T13:20:30;3.97;;;1.92;;
29416;SDS011;28421;51.030;4.006;2022-10-31T13:23:08;4.03;;;1.75;;
29416;SDS011;28421;51.030;4.006;2022-10-31T13:25:39;2.55;;;1.50;;
29416;SDS011;28421;51.030;4.006;2022-10-31T13:28:15;3.97;;;1.90;;
29416;SDS011;28421;51.030;4.006;2022-10-31T13:30:56;2.10;;;1.50;;
29416;SDS011;28421;51.030;4.006;2022-10-31T13:33:29;2.45;;;1.67;;
29416;SDS011;28421;51.030;4.006;2022-10-31T13:36:10;2.38;;;1.77;;
29416;SDS011;28421;51.030;4.006;2022-10-31T13:38:51;3.03;;;1.92;;
29416;SDS011;28421;51.030;4.006;2022-10-31T13:46:51;2.38;;;1.65;;
29416;SDS011;28421;51.030;4.006;2022-10-31T13:51:49;4.68;;;1.95;;
29416;SDS011;28421;51.030;4.006;2022-10-31T13:56:51;4.78;;;2.25;;
29416;SDS011;28421;51.030;4.006;2022-10-31T13:59:22;3.53;;;2.15;;
29416;SDS011;28421;51.030;4.006;2022-10-31T14:01:56;2.15;;;1.90;;
29416;SDS011;28421;51.030;4.006;2022-10-31T14:09:34;3.70;;;2.10;;
29416;SDS011;28421;51.030;4.006;2022-10-31T14:12:05;3.65;;;1.88;;
29416;SDS011;28421;51.030;4.006;2022-10-31T14:14:48;3.22;;;1.83;;
29416;SDS011;28421;51.030;4.006;2022-10-31T14:17:17;8.50;;;2.15;;
29416;SDS011;28421;51.030;4.006;2022-10-31T14:22:36;6.18;;;2.15;;
29416;SDS011;28421;51.030;4.006;2022-10-31T14:31:51;2.08;;;1.60;;
29416;SDS011;28421;51.030;4.006;2022-10-31T14:37:31;3.85;;;1.35;;
29416;SDS011;28421;51.030;4.006;2022-10-31T14:50:50;3.92;;;1.98;;
29416;SDS011;28421;51.030;4.006;2022-10-31T14:53:22;4.65;;;1.90;;
29416;SDS011;28421;51.030;4.006;2022-10-31T14:55:52;3.77;;;1.80;;
29416;SDS011;28421;51.030;4.006;2022-10-31T14:58:20;2.15;;;1.60;;
29416;SDS011;28421;51.030;4.006;2022-10-31T15:01:07;2.88;;;1.88;;
29416;SDS011;28421;51.030;4.006;2022-10-31T15:03:44;2.75;;;1.88;;
29416;SDS011;28421;51.030;4.006;2022-10-31T15:06:14;6.00;;;2.53;;
29416;SDS011;28421;51.030;4.006;2022-10-31T15:08:49;1.85;;;1.70;;
29416;SDS011;28421;51.030;4.006;2022-10-31T15:11:18;3.08;;;1.48;;
29416;SDS011;28421;51.030;4.006;2022-10-31T15:13:49;4.40;;;1.98;;
29416;SDS011;28421;51.030;4.006;2022-10-31T15:16:17;2.30;;;1.67;;
29416;SDS011;28421;51.030;4.006;2022-10-31T15:19:02;3.28;;;1.77;;
29416;SDS011;28421;51.030;4.006;2022-10-31T15:21:30;2.42;;;1.40;;
29416;SDS011;28421;51.030;4.006;2022-10-31T15:23:58;2.42;;;1.67;;
29416;SDS011;28421;51.030;4.006;2022-10-31T15:26:47;2.10;;;1.50;;
29416;SDS011;28421;51.030;4.006;2022-10-31T15:29:13;3.67;;;1.63;;
29416;SDS011;28421;51.030;4.006;2022-10-31T15:31:50;2.53;;;1.58;;
29416;SDS011;28421;51.030;4.006;2022-10-31T15:37:17;2.83;;;1.98;;
29416;SDS011;28421;51.030;4.006;2022-10-31T15:39:45;2.33;;;1.70;;
29416;SDS011;28421;51.030;4.006;2022-10-31T15:44:46;1.80;;;1.67;;
29416;SDS011;28421;51.030;4.006;2022-10-31T15:47:17;3.97;;;1.63;;
29416;SDS011;28421;51.030;4.006;2022-10-31T15:49:49;3.42;;;2.00;;
29416;SDS011;28421;51.030;4.006;2022-10-31T15:54:58;2.65;;;1.63;;
29416;SDS011;28421;51.030;4.006;2022-10-31T15:57:25;4.72;;;1.90;;
29416;SDS011;28421;51.030;4.006;2022-10-31T15:59:51;4.50;;;1.83;;
29416;SDS011;28421;51.030;4.006;2022-10-31T16:02:22;4.05;;;2.00;;
29416;SDS011;28421;51.030;4.006;2022-10-31T16:05:00;5.10;;;1.85;;
29416;SDS011;28421;51.030;4.006;2022-10-31T16:07:27;4.45;;;2.25;;
29416;SDS011;28421;51.030;4.006;2022-10-31T16:09:55;4.00;;;1.95;;
29416;SDS011;28421;51.030;4.006;2022-10-31T16:12:46;3.85;;;1.85;;
29416;SDS011;28421;51.030;4.006;2022-10-31T16:15:14;1.77;;;1.58;;
29416;SDS011;28421;51.030;4.006;2022-10-31T16:17:42;4.47;;;1.58;;
29416;SDS011;28421;51.030;4.006;2022-10-31T16:20:23;8.93;;;3.30;;
29416;SDS011;28421;51.030;4.006;2022-10-31T16:22:52;3.28;;;1.77;;
29416;SDS011;28421;51.030;4.006;2022-10-31T16:25:24;1.88;;;1.58;;
29416;SDS011;28421;51.030;4.006;2022-10-31T16:27:56;2.75;;;1.88;;
29416;SDS011;28421;51.030;4.006;2022-10-31T16:30:30;2.05;;;1.60;;
29416;SDS011;28421;51.030;4.006;2022-10-31T16:33:02;4.22;;;1.80;;
29416;SDS011;28421;51.030;4.006;2022-10-31T16:35:31;2.88;;;1.63;;
29416;SDS011;28421;51.030;4.006;2022-10-31T16:37:58;2.22;;;1.90;;
29416;SDS011;28421;51.030;4.006;2022-10-31T16:40:24;4.90;;;2.42;;
29416;SDS011;28421;51.030;4.006;2022-10-31T16:42:50;3.58;;;1.50;;
29416;SDS011;28421;51.030;4.006;2022-10-31T16:45:20;3.42;;;2.08;;
29416;SDS011;28421;51.030;4.006;2022-10-31T16:47:48;2.60;;;1.45;;
29416;SDS011;28421;51.030;4.006;2022-10-31T16:50:15;1.67;;;1.27;;
29416;SDS011;28421;51.030;4.006;2022-10-31T16:52:43;3.95;;;1.95;;
29416;SDS011;28421;51.030;4.006;2022-10-31T16:55:11;2.30;;;1.65;;
29416;SDS011;28421;51.030;4.006;2022-10-31T16:57:38;1.98;;;1.45;;
29416;SDS011;28421;51.030;4.006;2022-10-31T17:00:14;4.90;;;1.75;;
29416;SDS011;28421;51.030;4.006;2022-10-31T17:02:42;1.88;;;1.58;;
29416;SDS011;28421;51.030;4.006;2022-10-31T17:05:12;6.50;;;2.00;;
29416;SDS011;28421;51.030;4.006;2022-10-31T17:07:39;5.47;;;2.20;;
29416;SDS011;28421;51.030;4.006;2022-10-31T17:10:05;3.60;;;1.98;;
29416;SDS011;28421;51.030;4.006;2022-10-31T17:12:32;4.43;;;1.95;;
29416;SDS011;28421;51.030;4.006;2022-10-31T17:14:58;3.95;;;2.22;;
29416;SDS011;28421;51.030;4.006;2022-10-31T17:17:23;2.85;;;2.22;;
29416;SDS011;28421;51.030;4.006;2022-10-31T17:19:49;3.42;;;2.22;;
29416;SDS011;28421;51.030;4.006;2022-10-31T17:22:15;5.80;;;2.65;;
29416;SDS011;28421;51.030;4.006;2022-10-31T17:24:40;5.32;;;2.05;;
29416;SDS011;28421;51.030;4.006;2022-10-31T17:27:06;3.75;;;2.30;;
29416;SDS011;28421;51.030;4.006;2022-10-31T17:29:32;3.35;;;2.28;;
29416;SDS011;28421;51.030;4.006;2022-10-31T17:31:58;3.05;;;1.95;;
29416;SDS011;28421;51.030;4.006;2022-10-31T17:34:24;7.32;;;3.38;;
29416;SDS011;28421;51.030;4.006;2022-10-31T17:36:51;4.47;;;2.38;;
29416;SDS011;28421;51.030;4.006;2022-10-31T17:39:20;6.25;;;2.53;;
29416;SDS011;28421;51.030;4.006;2022-10-31T17:41:50;8.75;;;3.33;;
29416;SDS011;28421;51.030;4.006;2022-10-31T17:44:16;8.23;;;3.10;;
29416;SDS011;28421;51.030;4.006;2022-10-31T17:46:42;7.05;;;3.75;;
29416;SDS011;28421;51.030;4.006;2022-10-31T17:49:11;6.28;;;3.30;;
29416;SDS011;28421;51.030;4.006;2022-10-31T17:51:37;5.95;;;2.90;;
29416;SDS011;28421;51.030;4.006;2022-10-31T17:54:03;4.93;;;3.08;;
29416;SDS011;28421;51.030;4.006;2022-10-31T17:56:30;7.65;;;2.60;;
29416;SDS011;28421;51.030;4.006;2022-10-31T17:58:56;6.82;;;3.17;;
29416;SDS011;28421;51.030;4.006;2022-10-31T18:01:22;5.93;;;2.65;;
29416;SDS011;28421;51.030;4.006;2022-10-31T18:03:48;4.75;;;2.58;;
29416;SDS011;28421;51.030;4.006;2022-10-31T18:06:14;9.45;;;3.03;;
29416;SDS011;28421;51.030;4.006;2022-10-31T18:08:41;6.40;;;2.92;;
29416;SDS011;28421;51.030;4.006;2022-10-31T18:11:18;10.23;;;3.17;;
29416;SDS011;28421;51.030;4.006;2022-10-31T18:13:45;7.63;;;3.13;;
29416;SDS011;28421;51.030;4.006;2022-10-31T18:16:14;6.57;;;2.83;;
29416;SDS011;28421;51.030;4.006;2022-10-31T18:18:43;11.02;;;3.45;;
29416;SDS011;28421;51.030;4.006;2022-10-31T18:21:09;8.77;;;3.00;;
29416;SDS011;28421;51.030;4.006;2022-10-31T18:23:35;10.77;;;3.10;;
29416;SDS011;28421;51.030;4.006;2022-10-31T18:26:00;7.22;;;2.78;;
29416;SDS011;28421;51.030;4.006;2022-10-31T18:28:26;6.45;;;3.08;;
29416;SDS011;28421;51.030;4.006;2022-10-31T18:30:52;3.40;;;2.42;;
29416;SDS011;28421;51.030;4.006;2022-10-31T18:33:17;5.00;;;2.80;;
29416;SDS011;28421;51.030;4.006;2022-10-31T18:35:43;4.53;;;2.67;;
29416;SDS011;28421;51.030;4.006;2022-10-31T18:38:10;6.97;;;3.00;;
29416;SDS011;28421;51.030;4.006;2022-10-31T18:40:35;3.63;;;1.92;;
29416;SDS011;28421;51.030;4.006;2022-10-31T18:43:01;6.07;;;2.95;;
29416;SDS011;28421;51.030;4.006;2022-10-31T18:45:27;6.53;;;2.83;;
29416;SDS011;28421;51.030;4.006;2022-10-31T18:47:53;7.43;;;2.97;;
29416;SDS011;28421;51.030;4.006;2022-10-31T18:50:19;4.53;;;2.40;;
29416;SDS011;28421;51.030;4.006;2022-10-31T18:52:45;6.28;;;3.28;;
29416;SDS011;28421;51.030;4.006;2022-10-31T18:55:10;3.92;;;2.15;;
29416;SDS011;28421;51.030;4.006;2022-10-31T18:57:36;8.57;;;3.72;;
29416;SDS011;28421;51.030;4.006;2022-10-31T19:00:05;6.40;;;2.55;;
29416;SDS011;28421;51.030;4.006;2022-10-31T19:02:31;3.80;;;2.28;;
29416;SDS011;28421;51.030;4.006;2022-10-31T19:04:57;4.63;;;2.72;;
29416;SDS011;28421;51.030;4.006;2022-10-31T19:07:22;8.48;;;2.70;;
29416;SDS011;28421;51.030;4.006;2022-10-31T19:09:48;7.80;;;2.72;;
29416;SDS011;28421;51.030;4.006;2022-10-31T19:12:14;3.50;;;2.17;;
29416;SDS011;28421;51.030;4.006;2022-10-31T19:14:39;12.80;;;3.40;;
29416;SDS011;28421;51.030;4.006;2022-10-31T19:17:05;8.60;;;3.78;;
29416;SDS011;28421;51.030;4.006;2022-10-31T19:19:31;4.32;;;2.67;;
29416;SDS011;28421;51.030;4.006;2022-10-31T19:21:56;4.10;;;2.38;;
29416;SDS011;28421;51.030;4.006;2022-10-31T19:24:22;5.28;;;2.42;;
29416;SDS011;28421;51.030;4.006;2022-10-31T19:26:48;4.07;;;1.92;;
29416;SDS011;28421;51.030;4.006;2022-10-31T19:29:13;3.13;;;2.28;;
29416;SDS011;28421;51.030;4.006;2022-10-31T19:31:39;4.43;;;2.78;;
29416;SDS011;28421;51.030;4.006;2022-10-31T19:34:05;6.40;;;2.40;;
29416;SDS011;28421;51.030;4.006;2022-10-31T19:36:30;5.82;;;2.30;;
29416;SDS011;28421;51.030;4.006;2022-10-31T19:38:56;4.22;;;2.25;;
29416;SDS011;28421;51.030;4.006;2022-10-31T19:41:23;5.32;;;2.58;;
29416;SDS011;28421;51.030;4.006;2022-10-31T19:43:50;9.25;;;3.75;;
29416;SDS011;28421;51.030;4.006;2022-10-31T19:46:17;4.05;;;2.25;;
29416;SDS011;28421;51.030;4.006;2022-10-31T19:48:44;4.47;;;2.65;;
29416;SDS011;28421;51.030;4.006;2022-10-31T19:51:11;6.05;;;2.47;;
29416;SDS011;28421;51.030;4.006;2022-10-31T19:53:39;3.00;;;2.03;;
29416;SDS011;28421;51.030;4.006;2022-10-31T19:56:23;4.32;;;2.10;;
29416;SDS011;28421;51.030;4.006;2022-10-31T19:58:50;7.68;;;2.35;;
29416;SDS011;28421;51.030;4.006;2022-10-31T20:01:19;6.93;;;2.80;;
29416;SDS011;28421;51.030;4.006;2022-10-31T20:03:46;6.68;;;2.90;;
29416;SDS011;28421;51.030;4.006;2022-10-31T20:08:49;7.20;;;2.58;;
29416;SDS011;28421;51.030;4.006;2022-10-31T20:11:16;5.10;;;2.35;;
29416;SDS011;28421;51.030;4.006;2022-10-31T20:13:43;5.07;;;2.17;;
29416;SDS011;28421;51.030;4.006;2022-10-31T20:16:09;2.47;;;2.05;;
29416;SDS011;28421;51.030;4.006;2022-10-31T20:18:37;2.15;;;1.70;;
29416;SDS011;28421;51.030;4.006;2022-10-31T20:21:11;3.85;;;2.28;;
29416;SDS011;28421;51.030;4.006;2022-10-31T20:23:44;2.45;;;2.25;;
29416;SDS011;28421;51.030;4.006;2022-10-31T20:26:12;4.20;;;2.50;;
29416;SDS011;28421;51.030;4.006;2022-10-31T20:28:40;3.97;;;2.33;;
29416;SDS011;28421;51.030;4.006;2022-10-31T20:31:10;5.38;;;2.38;;
29416;SDS011;28421;51.030;4.006;2022-10-31T20:33:38;4.20;;;2.25;;
29416;SDS011;28421;51.030;4.006;2022-10-31T20:36:04;7.05;;;2.85;;
29416;SDS011;28421;51.030;4.006;2022-10-31T20:38:31;3.75;;;1.73;;
29416;SDS011;28421;51.030;4.006;2022-10-31T20:40:58;4.30;;;1.83;;
29416;SDS011;28421;51.030;4.006;2022-10-31T20:43:25;4.05;;;1.90;;
29416;SDS011;28421;51.030;4.006;2022-10-31T20:45:51;5.35;;;2.35;;
29416;SDS011;28421;51.030;4.006;2022-10-31T20:48:16;5.55;;;2.53;;
29416;SDS011;28421;51.030;4.006;2022-10-31T20:50:44;5.03;;;2.15;;
29416;SDS011;28421;51.030;4.006;2022-10-31T20:53:09;6.70;;;2.30;;
29416;SDS011;28421;51.030;4.006;2022-10-31T20:55:35;4.10;;;2.20;;
29416;SDS011;28421;51.030;4.006;2022-10-31T20:58:00;4.00;;;2.70;;
29416;SDS011;28421;51.030;4.006;2022-10-31T21:00:26;4.13;;;2.70;;
29416;SDS011;28421;51.030;4.006;2022-10-31T21:02:52;2.58;;;2.38;;
29416;SDS011;28421;51.030;4.006;2022-10-31T21:05:17;1.63;;;1.52;;
29416;SDS011;28421;51.030;4.006;2022-10-31T21:07:43;3.47;;;1.65;;
29416;SDS011;28421;51.030;4.006;2022-10-31T21:10:09;3.17;;;1.83;;
29416;SDS011;28421;51.030;4.006;2022-10-31T21:12:42;3.92;;;2.30;;
29416;SDS011;28421;51.030;4.006;2022-10-31T21:15:09;4.40;;;1.98;;
29416;SDS011;28421;51.030;4.006;2022-10-31T21:17:35;6.40;;;2.03;;
29416;SDS011;28421;51.030;4.006;2022-10-31T21:20:03;3.10;;;1.80;;
29416;SDS011;28421;51.030;4.006;2022-10-31T21:22:29;2.50;;;1.77;;
29416;SDS011;28421;51.030;4.006;2022-10-31T21:24:55;4.05;;;2.15;;
29416;SDS011;28421;51.030;4.006;2022-10-31T21:27:21;3.25;;;1.80;;
29416;SDS011;28421;51.030;4.006;2022-10-31T21:29:49;3.10;;;1.80;;
29416;SDS011;28421;51.030;4.006;2022-10-31T21:32:14;3.75;;;2.63;;
29416;SDS011;28421;51.030;4.006;2022-10-31T21:34:40;2.55;;;1.42;;
29416;SDS011;28421;51.030;4.006;2022-10-31T21:37:06;2.15;;;1.85;;
29416;SDS011;28421;51.030;4.006;2022-10-31T21:39:31;3.90;;;2.05;;
29416;SDS011;28421;51.030;4.006;2022-10-31T21:41:57;2.70;;;1.77;;
29416;SDS011;28421;51.030;4.006;2022-10-31T21:44:23;4.20;;;1.70;;
29416;SDS011;28421;51.030;4.006;2022-10-31T21:46:48;3.53;;;1.92;;
29416;SDS011;28421;51.030;4.006;2022-10-31T21:49:14;7.95;;;1.95;;
29416;SDS011;28421;51.030;4.006;2022-10-31T21:51:40;2.50;;;1.73;;
29416;SDS011;28421;51.030;4.006;2022-10-31T21:54:08;9.68;;;2.40;;
29416;SDS011;28421;51.030;4.006;2022-10-31T21:56:52;1.65;;;1.27;;
29416;SDS011;28421;51.030;4.006;2022-10-31T21:59:19;3.22;;;1.70;;
